Snow/Ice From: 17-12-2017 10:00 Until: 18-12-2017 06:00 warning for: Snow/Ice Level: Yellow info button

Although rather usual in this region, locally or potentially dangerous phenomena are expected. (such as local winds, summer thunderstorms, rising streams or high waves) Be aware and pay attention to the latest weather updates, especially if you carry out activities exposed to weather or close to a stream or shoreline. 


Meteo18 Weather Cam more information Meteo18 Weather Cam


Thunder radar more information blitzortung!


warning for Snow/Ice more information rain snow radar


Visit our other weather sites:

Template documentation
and downloads

And another site



Weather Underground History page Text

Daily Summary for May 2, 2017 Units:  Both    English   Metric
« Previous Day
Next Day »
Daily Weekly Monthly Yearly Custom
  High: Low: Average:
Temperature: 54.5 °F /  12.5 °C 43.5 °F /  6.4 °C 48.2 °F /  9 °C
Dew Point: 47.3 °F /  8.5 °C 41.9 °F /  5.5 °C 44.1 °F /  6.7 °C
Humidity: 95 % 70 % 86 %
Wind Speed: 14 mph /  22.5 km/h - 3 mph /  4.8 km/h
Wind Gust: 19 mph /  30.6 km/h - -
Wind:- - SSE
Pressure: 30.1 in /  1019.5 hPa 29.9 in /  1014.1 hPa -
Precipitation: 0.31 in /  7.9 mm    
Historical Graphs
 
 
Tabular Data for May 2, 2017
Time Temperature Dew Point Pressure Wind Wind Speed Wind Gust Humidity Rainfall Rate (Hourly)
00:02 46.8 °F /  8.2 °C 42.4 °F /  5.8 °C 30 in /  1016.5 hPa SW 2 mph /  3.2 km/h 4 mph /  6.4 km/h 85 % 0 in /  0.0 mm
00:07 46.8 °F /  8.2 °C 42.4 °F /  5.8 °C 30 in /  1016.1 hPa SSW 2 mph /  3.2 km/h 4 mph /  6.4 km/h 85 % 0 in /  0.0 mm
00:12 46.8 °F /  8.2 °C 42.4 °F /  5.8 °C 30 in /  1016.1 hPa SSW 1 mph /  1.6 km/h 4 mph /  6.4 km/h 85 % 0 in /  0.0 mm
00:17 46.8 °F /  8.2 °C 42.4 °F /  5.8 °C 30 in /  1016.1 hPa Calm   4 mph /  6.4 km/h 85 % 0 in /  0.0 mm
00:22 46.6 °F /  8.1 °C 42.3 °F /  5.7 °C 30 in /  1016.1 hPa Calm   4 mph /  6.4 km/h 85 % 0 in /  0.0 mm
00:27 46.6 °F /  8.1 °C 42.6 °F /  5.9 °C 30 in /  1016.1 hPa Calm   3 mph /  4.8 km/h 86 % 0 in /  0.0 mm
00:32 46.4 °F /  8.0 °C 42.4 °F /  5.8 °C 30 in /  1016.1 hPa Calm   2 mph /  3.2 km/h 86 % 0 in /  0.0 mm
00:37 46.4 °F /  8.0 °C 42.4 °F /  5.8 °C 30 in /  1016.1 hPa Calm   1 mph /  1.6 km/h 86 % 0 in /  0.0 mm
00:42 46.4 °F /  8.0 °C 42.4 °F /  5.8 °C 30 in /  1016.1 hPa Calm   1 mph /  1.6 km/h 86 % 0 in /  0.0 mm
00:47 46.4 °F /  8.0 °C 42.8 °F /  6.0 °C 30 in /  1016.1 hPa West 1 mph /  1.6 km/h 1 mph /  1.6 km/h 87 % 0 in /  0.0 mm
00:52 46.2 °F /  7.9 °C 42.6 °F /  5.9 °C 30 in /  1016.1 hPa Calm   1 mph /  1.6 km/h 87 % 0 in /  0.0 mm
01:02 46.4 °F /  8.0 °C 42.8 °F /  6.0 °C 30 in /  1016.1 hPa Calm   1 mph /  1.6 km/h 87 % 0 in /  0.0 mm
01:12 46.2 °F /  7.9 °C 42.6 °F /  5.9 °C 30 in /  1016.1 hPa Calm   1 mph /  1.6 km/h 87 % 0 in /  0.0 mm
01:17 46.2 °F /  7.9 °C 42.6 °F /  5.9 °C 30 in /  1016.1 hPa Calm   1 mph /  1.6 km/h 87 % 0 in /  0.0 mm
01:22 46.2 °F /  7.9 °C 42.6 °F /  5.9 °C 30 in /  1016.1 hPa Calm     87 % 0 in /  0.0 mm
01:32 46.2 °F /  7.9 °C 43.2 °F /  6.2 °C 30 in /  1016.1 hPa Calm   1 mph /  1.6 km/h 89 % 0.01 in /  0.3 mm
01:37 46 °F /  7.8 °C 43 °F /  6.1 °C 30 in /  1016.1 hPa South 3 mph /  4.8 km/h 3 mph /  4.8 km/h 89 % 0.01 in /  0.3 mm
01:42 46 °F /  7.8 °C 43.3 °F /  6.3 °C 30 in /  1015.8 hPa Calm   4 mph /  6.4 km/h 90 % 0.02 in /  0.5 mm
01:47 46 °F /  7.8 °C 43.3 °F /  6.3 °C 30 in /  1015.8 hPa SSW 2 mph /  3.2 km/h 4 mph /  6.4 km/h 90 % 0.02 in /  0.5 mm
01:52 45.9 °F /  7.7 °C 43.2 °F /  6.2 °C 30 in /  1015.8 hPa South 1 mph /  1.6 km/h 5 mph /  8.0 km/h 90 % 0.02 in /  0.5 mm
01:57 45.9 °F /  7.7 °C 43.3 °F /  6.3 °C 30 in /  1015.8 hPa SW 1 mph /  1.6 km/h 5 mph /  8.0 km/h 91 % 0.02 in /  0.5 mm
02:02 45.9 °F /  7.7 °C 43.3 °F /  6.3 °C 30 in /  1015.8 hPa SSW 1 mph /  1.6 km/h 5 mph /  8.0 km/h 91 % 0.03 in /  0.8 mm
02:07 45.7 °F /  7.6 °C 43.2 °F /  6.2 °C 30 in /  1015.8 hPa Calm   3 mph /  4.8 km/h 91 % 0.04 in /  1.0 mm
02:12 45.7 °F /  7.6 °C 43.5 °F /  6.4 °C 30 in /  1015.8 hPa Calm   3 mph /  4.8 km/h 92 % 0.04 in /  1.0 mm
02:17 45.7 °F /  7.6 °C 43.5 °F /  6.4 °C 30 in /  1015.8 hPa Calm   3 mph /  4.8 km/h 92 % 0.05 in /  1.3 mm
02:22 45.7 °F /  7.6 °C 43.5 °F /  6.4 °C 30 in /  1015.5 hPa Calm   2 mph /  3.2 km/h 92 % 0.05 in /  1.3 mm
02:27 45.7 °F /  7.6 °C 43.5 °F /  6.4 °C 30 in /  1015.5 hPa Calm   1 mph /  1.6 km/h 92 % 0.06 in /  1.5 mm
02:32 45.7 °F /  7.6 °C 43.5 °F /  6.4 °C 30 in /  1015.5 hPa Calm   1 mph /  1.6 km/h 92 % 0.05 in /  1.3 mm
02:37 45.5 °F /  7.5 °C 43.5 °F /  6.4 °C 30 in /  1015.5 hPa Calm   1 mph /  1.6 km/h 93 % 0.05 in /  1.3 mm
02:42 45.5 °F /  7.5 °C 43.5 °F /  6.4 °C 30 in /  1015.5 hPa Calm   1 mph /  1.6 km/h 93 % 0.05 in /  1.3 mm
02:47 45.7 °F /  7.6 °C 43.7 °F /  6.5 °C 30 in /  1015.5 hPa Calm   1 mph /  1.6 km/h 93 % 0.05 in /  1.3 mm
02:52 45.5 °F /  7.5 °C 43.5 °F /  6.4 °C 30 in /  1015.1 hPa Calm   2 mph /  3.2 km/h 93 % 0.04 in /  1.0 mm
02:57 45.3 °F /  7.4 °C 43.3 °F /  6.3 °C 30 in /  1015.1 hPa Calm   2 mph /  3.2 km/h 93 % 0.05 in /  1.3 mm
03:02 45.3 °F /  7.4 °C 43.3 °F /  6.3 °C 30 in /  1015.1 hPa Calm   2 mph /  3.2 km/h 93 % 0.04 in /  1.0 mm
03:07 45.3 °F /  7.4 °C 43.3 °F /  6.3 °C 30 in /  1015.1 hPa Calm   1 mph /  1.6 km/h 93 % 0.04 in /  1.0 mm
03:12 45.3 °F /  7.4 °C 43.7 °F /  6.5 °C 30 in /  1015.1 hPa Calm   1 mph /  1.6 km/h 94 % 0.04 in /  1.0 mm
03:17 45.3 °F /  7.4 °C 43.7 °F /  6.5 °C 30 in /  1015.1 hPa Calm   1 mph /  1.6 km/h 94 % 0.05 in /  1.3 mm
03:22 45.3 °F /  7.4 °C 43.7 °F /  6.5 °C 30 in /  1015.1 hPa ESE 1 mph /  1.6 km/h 3 mph /  4.8 km/h 94 % 0.05 in /  1.3 mm
03:27 45.3 °F /  7.4 °C 43.7 °F /  6.5 °C 30 in /  1015.1 hPa Calm   3 mph /  4.8 km/h 94 % 0.06 in /  1.5 mm
03:32 45.3 °F /  7.4 °C 43.7 °F /  6.5 °C 30 in /  1015.1 hPa East 1 mph /  1.6 km/h 2 mph /  3.2 km/h 94 % 0.06 in /  1.5 mm
03:37 45.3 °F /  7.4 °C 43.7 °F /  6.5 °C 30 in /  1015.1 hPa Calm   2 mph /  3.2 km/h 94 % 0.07 in /  1.8 mm
03:42 45.3 °F /  7.4 °C 43.7 °F /  6.5 °C 30 in /  1014.8 hPa ESE 2 mph /  3.2 km/h 4 mph /  6.4 km/h 94 % 0.07 in /  1.8 mm
03:52 45.1 °F /  7.3 °C 43.5 °F /  6.4 °C 30 in /  1014.8 hPa Calm   4 mph /  6.4 km/h 94 % 0.08 in /  2.0 mm
03:57 45.1 °F /  7.3 °C 43.5 °F /  6.4 °C 30 in /  1014.8 hPa East 1 mph /  1.6 km/h 2 mph /  3.2 km/h 94 % 0.08 in /  2.0 mm
04:02 45.1 °F /  7.3 °C 43.5 °F /  6.4 °C 30 in /  1014.8 hPa East 2 mph /  3.2 km/h 3 mph /  4.8 km/h 94 % 0.08 in /  2.0 mm
04:07 45 °F /  7.2 °C 43.7 °F /  6.5 °C 30 in /  1014.4 hPa East 2 mph /  3.2 km/h 3 mph /  4.8 km/h 95 % 0.09 in /  2.3 mm
04:12 45 °F /  7.2 °C 43.7 °F /  6.5 °C 30 in /  1014.4 hPa ENE 2 mph /  3.2 km/h 4 mph /  6.4 km/h 95 % 0.08 in /  2.0 mm
04:17 45 °F /  7.2 °C 43.7 °F /  6.5 °C 30 in /  1014.4 hPa ENE 2 mph /  3.2 km/h 4 mph /  6.4 km/h 95 % 0.08 in /  2.0 mm
04:22 45 °F /  7.2 °C 43.7 °F /  6.5 °C 30 in /  1014.4 hPa Calm   6 mph /  9.7 km/h 95 % 0.08 in /  2.0 mm
04:27 45 °F /  7.2 °C 43.7 °F /  6.5 °C 30 in /  1014.4 hPa Calm   6 mph /  9.7 km/h 95 % 0.07 in /  1.8 mm
04:32 45 °F /  7.2 °C 43.7 °F /  6.5 °C 30 in /  1014.4 hPa East 2 mph /  3.2 km/h 6 mph /  9.7 km/h 95 % 0.06 in /  1.5 mm
04:37 45 °F /  7.2 °C 43.7 °F /  6.5 °C 30 in /  1014.4 hPa ESE 2 mph /  3.2 km/h 3 mph /  4.8 km/h 95 % 0.06 in /  1.5 mm
04:42 45 °F /  7.2 °C 43.7 °F /  6.5 °C 30 in /  1014.4 hPa Calm   2 mph /  3.2 km/h 95 % 0.06 in /  1.5 mm
04:47 45 °F /  7.2 °C 43.7 °F /  6.5 °C 30 in /  1014.4 hPa Calm   2 mph /  3.2 km/h 95 % 0.06 in /  1.5 mm
04:52 44.8 °F /  7.1 °C 43.5 °F /  6.4 °C 30 in /  1014.4 hPa East 3 mph /  4.8 km/h 4 mph /  6.4 km/h 95 % 0.06 in /  1.5 mm
04:57 44.8 °F /  7.1 °C 43.5 °F /  6.4 °C 30 in /  1014.4 hPa ESE 2 mph /  3.2 km/h 5 mph /  8.0 km/h 95 % 0.05 in /  1.3 mm
05:02 44.8 °F /  7.1 °C 43.5 °F /  6.4 °C 30 in /  1014.4 hPa ESE 2 mph /  3.2 km/h 6 mph /  9.7 km/h 95 % 0.06 in /  1.5 mm
05:07 44.8 °F /  7.1 °C 43.5 °F /  6.4 °C 30 in /  1014.4 hPa East 2 mph /  3.2 km/h 7 mph /  11.3 km/h 95 % 0.05 in /  1.3 mm
05:12 44.8 °F /  7.1 °C 43.5 °F /  6.4 °C 30 in /  1014.4 hPa ESE 2 mph /  3.2 km/h 7 mph /  11.3 km/h 95 % 0.04 in /  1.0 mm
05:17 44.8 °F /  7.1 °C 43.5 °F /  6.4 °C 29.9 in /  1014.1 hPa ESE 1 mph /  1.6 km/h 7 mph /  11.3 km/h 95 % 0.05 in /  1.3 mm
05:22 44.8 °F /  7.1 °C 43.5 °F /  6.4 °C 29.9 in /  1014.1 hPa East 3 mph /  4.8 km/h 5 mph /  8.0 km/h 95 % 0.04 in /  1.0 mm
05:27 44.8 °F /  7.1 °C 43.5 °F /  6.4 °C 29.9 in /  1014.1 hPa ESE 1 mph /  1.6 km/h 6 mph /  9.7 km/h 95 % 0.04 in /  1.0 mm
05:32 44.6 °F /  7.0 °C 43.3 °F /  6.3 °C 29.9 in /  1014.1 hPa East 2 mph /  3.2 km/h 6 mph /  9.7 km/h 95 % 0.03 in /  0.8 mm
05:37 44.4 °F /  6.9 °C 43.2 °F /  6.2 °C 29.9 in /  1014.1 hPa ENE 6 mph /  9.7 km/h 6 mph /  9.7 km/h 95 % 0.03 in /  0.8 mm
05:42 44.4 °F /  6.9 °C 43.2 °F /  6.2 °C 29.9 in /  1014.1 hPa ENE 3 mph /  4.8 km/h 7 mph /  11.3 km/h 95 % 0.03 in /  0.8 mm
05:47 44.4 °F /  6.9 °C 43.2 °F /  6.2 °C 29.9 in /  1014.1 hPa NE 2 mph /  3.2 km/h 7 mph /  11.3 km/h 95 % 0.03 in /  0.8 mm
05:52 44.2 °F /  6.8 °C 43 °F /  6.1 °C 29.9 in /  1014.1 hPa East 4 mph /  6.4 km/h 7 mph /  11.3 km/h 95 % 0.02 in /  0.5 mm
05:57 44.2 °F /  6.8 °C 43 °F /  6.1 °C 29.9 in /  1014.1 hPa East 2 mph /  3.2 km/h 7 mph /  11.3 km/h 95 % 0.02 in /  0.5 mm
06:02 44.2 °F /  6.8 °C 43 °F /  6.1 °C 29.9 in /  1014.1 hPa ENE 1 mph /  1.6 km/h 5 mph /  8.0 km/h 95 % 0.02 in /  0.5 mm
06:12 44.2 °F /  6.8 °C 43 °F /  6.1 °C 29.9 in /  1014.1 hPa ENE 2 mph /  3.2 km/h 5 mph /  8.0 km/h 95 % 0.02 in /  0.5 mm
06:17 44.2 °F /  6.8 °C 43 °F /  6.1 °C 29.9 in /  1014.1 hPa NNE 4 mph /  6.4 km/h 5 mph /  8.0 km/h 95 % 0.02 in /  0.5 mm
06:22 44.2 °F /  6.8 °C 43 °F /  6.1 °C 29.9 in /  1014.1 hPa NE 4 mph /  6.4 km/h 6 mph /  9.7 km/h 95 % 0.02 in /  0.5 mm
06:27 44.2 °F /  6.8 °C 43 °F /  6.1 °C 29.9 in /  1014.1 hPa NE 2 mph /  3.2 km/h 7 mph /  11.3 km/h 95 % 0.02 in /  0.5 mm
06:32 44.2 °F /  6.8 °C 43 °F /  6.1 °C 29.9 in /  1014.1 hPa NNE 3 mph /  4.8 km/h 7 mph /  11.3 km/h 95 % 0.02 in /  0.5 mm
06:37 44.2 °F /  6.8 °C 43 °F /  6.1 °C 29.9 in /  1014.1 hPa NE 4 mph /  6.4 km/h 7 mph /  11.3 km/h 95 % 0.02 in /  0.5 mm
06:42 44.2 °F /  6.8 °C 43 °F /  6.1 °C 29.9 in /  1014.1 hPa NE 5 mph /  8.0 km/h 7 mph /  11.3 km/h 95 % 0.01 in /  0.3 mm
06:47 44.2 °F /  6.8 °C 43 °F /  6.1 °C 29.9 in /  1014.1 hPa NE 7 mph /  11.3 km/h 8 mph /  12.9 km/h 95 % 0.01 in /  0.3 mm
06:52 44.1 °F /  6.7 °C 42.8 °F /  6.0 °C 29.9 in /  1014.1 hPa NE 4 mph /  6.4 km/h 9 mph /  14.5 km/h 95 % 0.01 in /  0.3 mm
07:02 44.1 °F /  6.7 °C 42.8 °F /  6.0 °C 29.9 in /  1014.1 hPa NE 6 mph /  9.7 km/h 9 mph /  14.5 km/h 95 % 0.01 in /  0.3 mm
07:12 44.1 °F /  6.7 °C 42.8 °F /  6.0 °C 29.9 in /  1014.1 hPa North 5 mph /  8.0 km/h 9 mph /  14.5 km/h 95 % 0 in /  0.0 mm
07:17 44.1 °F /  6.7 °C 42.8 °F /  6.0 °C 29.9 in /  1014.1 hPa NNE 7 mph /  11.3 km/h 10 mph /  16.1 km/h 95 % 0 in /  0.0 mm
07:22 44.1 °F /  6.7 °C 42.8 °F /  6.0 °C 29.9 in /  1014.1 hPa NE 8 mph /  12.9 km/h 11 mph /  17.7 km/h 95 % 0 in /  0.0 mm
07:27 44.1 °F /  6.7 °C 42.8 °F /  6.0 °C 29.9 in /  1014.1 hPa NE 3 mph /  4.8 km/h 11 mph /  17.7 km/h 95 % 0 in /  0.0 mm
07:32 44.1 °F /  6.7 °C 42.8 °F /  6.0 °C 29.9 in /  1014.1 hPa ENE 3 mph /  4.8 km/h 11 mph /  17.7 km/h 95 % 0.01 in /  0.3 mm
07:37 44.1 °F /  6.7 °C 42.4 °F /  5.8 °C 29.9 in /  1014.1 hPa NE 6 mph /  9.7 km/h 11 mph /  17.7 km/h 94 % 0.01 in /  0.3 mm
07:42 44.1 °F /  6.7 °C 42.4 °F /  5.8 °C 29.9 in /  1014.1 hPa NE 5 mph /  8.0 km/h 11 mph /  17.7 km/h 94 % 0.01 in /  0.3 mm
07:47 44.1 °F /  6.7 °C 42.4 °F /  5.8 °C 29.9 in /  1014.1 hPa NE 4 mph /  6.4 km/h 11 mph /  17.7 km/h 94 % 0.01 in /  0.3 mm
07:52 43.9 °F /  6.6 °C 42.3 °F /  5.7 °C 29.9 in /  1014.1 hPa ENE 7 mph /  11.3 km/h 11 mph /  17.7 km/h 94 % 0.01 in /  0.3 mm
07:57 43.9 °F /  6.6 °C 42.3 °F /  5.7 °C 29.9 in /  1014.1 hPa NNE 5 mph /  8.0 km/h 11 mph /  17.7 km/h 94 % 0.01 in /  0.3 mm
08:02 43.9 °F /  6.6 °C 42.3 °F /  5.7 °C 29.9 in /  1014.1 hPa NE 6 mph /  9.7 km/h 12 mph /  19.3 km/h 94 % 0.02 in /  0.5 mm
08:12 43.7 °F /  6.5 °C 42.1 °F /  5.6 °C 29.9 in /  1014.1 hPa ENE 5 mph /  8.0 km/h 11 mph /  17.7 km/h 94 % 0.02 in /  0.5 mm
08:17 43.5 °F /  6.4 °C 41.9 °F /  5.5 °C 30 in /  1014.4 hPa NE 5 mph /  8.0 km/h 14 mph /  22.5 km/h 94 % 0.02 in /  0.5 mm
08:22 43.5 °F /  6.4 °C 41.9 °F /  5.5 °C 30 in /  1014.4 hPa ENE 7 mph /  11.3 km/h 14 mph /  22.5 km/h 94 % 0.02 in /  0.5 mm
08:27 43.5 °F /  6.4 °C 41.9 °F /  5.5 °C 30 in /  1014.4 hPa NE 7 mph /  11.3 km/h 16 mph /  25.7 km/h 94 % 0.02 in /  0.5 mm
08:32 43.5 °F /  6.4 °C 41.9 °F /  5.5 °C 30 in /  1014.4 hPa NE 10 mph /  16.1 km/h 16 mph /  25.7 km/h 94 % 0.02 in /  0.5 mm
08:37 43.5 °F /  6.4 °C 41.9 °F /  5.5 °C 30 in /  1014.4 hPa North 12 mph /  19.3 km/h 16 mph /  25.7 km/h 94 % 0.02 in /  0.5 mm
08:42 43.5 °F /  6.4 °C 41.9 °F /  5.5 °C 30 in /  1014.4 hPa NE 3 mph /  4.8 km/h 12 mph /  19.3 km/h 94 % 0.02 in /  0.5 mm
08:47 43.5 °F /  6.4 °C 41.9 °F /  5.5 °C 30 in /  1014.4 hPa North 7 mph /  11.3 km/h 12 mph /  19.3 km/h 94 % 0.02 in /  0.5 mm
08:57 43.5 °F /  6.4 °C 42.3 °F /  5.7 °C 30 in /  1014.4 hPa NNE 8 mph /  12.9 km/h 14 mph /  22.5 km/h 95 % 0.02 in /  0.5 mm
09:02 43.5 °F /  6.4 °C 42.3 °F /  5.7 °C 30 in /  1014.4 hPa NNE 8 mph /  12.9 km/h 16 mph /  25.7 km/h 95 % 0.02 in /  0.5 mm
09:12 43.9 °F /  6.6 °C 42.6 °F /  5.9 °C 30 in /  1014.4 hPa NE 6 mph /  9.7 km/h 16 mph /  25.7 km/h 95 % 0.02 in /  0.5 mm
09:17 43.9 °F /  6.6 °C 42.6 °F /  5.9 °C 30 in /  1014.8 hPa NNE 9 mph /  14.5 km/h 16 mph /  25.7 km/h 95 % 0.03 in /  0.8 mm
09:22 44.1 °F /  6.7 °C 42.8 °F /  6.0 °C 30 in /  1014.8 hPa NNE 6 mph /  9.7 km/h 16 mph /  25.7 km/h 95 % 0.02 in /  0.5 mm
09:32 44.2 °F /  6.8 °C 43 °F /  6.1 °C 30 in /  1014.8 hPa NNE 7 mph /  11.3 km/h 15 mph /  24.1 km/h 95 % 0.02 in /  0.5 mm
09:42 44.4 °F /  6.9 °C 43.2 °F /  6.2 °C 30 in /  1014.8 hPa NNE 10 mph /  16.1 km/h 13 mph /  20.9 km/h 95 % 0.02 in /  0.5 mm
09:47 44.4 °F /  6.9 °C 42.8 °F /  6.0 °C 30 in /  1014.8 hPa NNE 6 mph /  9.7 km/h 13 mph /  20.9 km/h 94 % 0.02 in /  0.5 mm
09:52 44.4 °F /  6.9 °C 42.8 °F /  6.0 °C 30 in /  1014.8 hPa ENE 7 mph /  11.3 km/h 14 mph /  22.5 km/h 94 % 0.02 in /  0.5 mm
09:57 44.6 °F /  7.0 °C 43 °F /  6.1 °C 30 in /  1014.8 hPa NNE 8 mph /  12.9 km/h 14 mph /  22.5 km/h 94 % 0.02 in /  0.5 mm
10:02 44.8 °F /  7.1 °C 43.2 °F /  6.2 °C 30 in /  1015.1 hPa ENE 2 mph /  3.2 km/h 13 mph /  20.9 km/h 94 % 0.02 in /  0.5 mm
10:07 45 °F /  7.2 °C 43.3 °F /  6.3 °C 30 in /  1015.1 hPa North 3 mph /  4.8 km/h 13 mph /  20.9 km/h 94 % 0.02 in /  0.5 mm
10:12 45 °F /  7.2 °C 43.3 °F /  6.3 °C 30 in /  1015.1 hPa NE 4 mph /  6.4 km/h 13 mph /  20.9 km/h 94 % 0.02 in /  0.5 mm
10:17 45.1 °F /  7.3 °C 43.5 °F /  6.4 °C 30 in /  1015.1 hPa NE 7 mph /  11.3 km/h 12 mph /  19.3 km/h 94 % 0.01 in /  0.3 mm
10:22 45.3 °F /  7.4 °C 43.7 °F /  6.5 °C 30 in /  1015.1 hPa North 5 mph /  8.0 km/h 11 mph /  17.7 km/h 94 % 0.01 in /  0.3 mm
10:32 45.5 °F /  7.5 °C 43.5 °F /  6.4 °C 30 in /  1015.1 hPa NE 4 mph /  6.4 km/h 13 mph /  20.9 km/h 93 % 0.01 in /  0.3 mm
10:37 45.9 °F /  7.7 °C 43.9 °F /  6.6 °C 30 in /  1015.1 hPa North 6 mph /  9.7 km/h 13 mph /  20.9 km/h 93 % 0.01 in /  0.3 mm
10:42 45.9 °F /  7.7 °C 43.7 °F /  6.5 °C 30 in /  1015.5 hPa NNE 5 mph /  8.0 km/h 13 mph /  20.9 km/h 92 % 0 in /  0.0 mm
10:47 46 °F /  7.8 °C 43.5 °F /  6.4 °C 30 in /  1015.5 hPa NNE 7 mph /  11.3 km/h 9 mph /  14.5 km/h 91 % 0 in /  0.0 mm
10:52 45.9 °F /  7.7 °C 43.2 °F /  6.2 °C 30 in /  1015.5 hPa NNE 5 mph /  8.0 km/h 12 mph /  19.3 km/h 90 % 0 in /  0.0 mm
10:57 45.9 °F /  7.7 °C 42.8 °F /  6.0 °C 30 in /  1015.5 hPa NE 4 mph /  6.4 km/h 13 mph /  20.9 km/h 89 % 0 in /  0.0 mm
11:02 46 °F /  7.8 °C 43 °F /  6.1 °C 30 in /  1015.5 hPa NNE 8 mph /  12.9 km/h 13 mph /  20.9 km/h 89 % 0 in /  0.0 mm
11:07 46 °F /  7.8 °C 43 °F /  6.1 °C 30 in /  1015.5 hPa NNE 4 mph /  6.4 km/h 13 mph /  20.9 km/h 89 % 0 in /  0.0 mm
11:12 46 °F /  7.8 °C 43.3 °F /  6.3 °C 30 in /  1015.5 hPa ENE 1 mph /  1.6 km/h 10 mph /  16.1 km/h 90 % 0 in /  0.0 mm
11:17 46 °F /  7.8 °C 43.3 °F /  6.3 °C 30 in /  1015.5 hPa NNW 1 mph /  1.6 km/h 10 mph /  16.1 km/h 90 % 0 in /  0.0 mm
11:22 46.2 °F /  7.9 °C 43.5 °F /  6.4 °C 30 in /  1015.5 hPa NNW 1 mph /  1.6 km/h 10 mph /  16.1 km/h 90 % 0 in /  0.0 mm
11:27 46 °F /  7.8 °C 43.3 °F /  6.3 °C 30 in /  1015.5 hPa NE 1 mph /  1.6 km/h 10 mph /  16.1 km/h 90 % 0 in /  0.0 mm
11:32 46.2 °F /  7.9 °C 43.5 °F /  6.4 °C 30 in /  1015.5 hPa North 7 mph /  11.3 km/h 7 mph /  11.3 km/h 90 % 0 in /  0.0 mm
11:42 46.2 °F /  7.9 °C 43.7 °F /  6.5 °C 30 in /  1015.8 hPa NNE 1 mph /  1.6 km/h 9 mph /  14.5 km/h 91 % 0 in /  0.0 mm
11:47 46.4 °F /  8.0 °C 43.9 °F /  6.6 °C 30 in /  1015.8 hPa NW 4 mph /  6.4 km/h 9 mph /  14.5 km/h 91 % 0 in /  0.0 mm
11:52 46.6 °F /  8.1 °C 44.1 °F /  6.7 °C 30 in /  1015.8 hPa NNE 2 mph /  3.2 km/h 9 mph /  14.5 km/h 91 % 0 in /  0.0 mm
12:02 46.9 °F /  8.3 °C 44.4 °F /  6.9 °C 30 in /  1015.8 hPa ENE 1 mph /  1.6 km/h 9 mph /  14.5 km/h 91 % 0 in /  0.0 mm
12:07 47.1 °F /  8.4 °C 44.6 °F /  7.0 °C 30 in /  1015.8 hPa NE 6 mph /  9.7 km/h 9 mph /  14.5 km/h 91 % 0 in /  0.0 mm
12:12 47.5 °F /  8.6 °C 44.4 °F /  6.9 °C 30 in /  1016.1 hPa NE 9 mph /  14.5 km/h 9 mph /  14.5 km/h 89 % 0 in /  0.0 mm
12:17 48.2 °F /  9.0 °C 45.1 °F /  7.3 °C 30 in /  1016.1 hPa ENE 5 mph /  8.0 km/h 12 mph /  19.3 km/h 89 % 0 in /  0.0 mm
12:22 48.9 °F /  9.4 °C 45.5 °F /  7.5 °C 30 in /  1016.1 hPa NE 3 mph /  4.8 km/h 12 mph /  19.3 km/h 88 % 0 in /  0.0 mm
12:27 49.1 °F /  9.5 °C 45.3 °F /  7.4 °C 30 in /  1016.1 hPa Calm   12 mph /  19.3 km/h 87 % 0 in /  0.0 mm
12:32 49.5 °F /  9.7 °C 45.5 °F /  7.5 °C 30 in /  1016.1 hPa ENE 5 mph /  8.0 km/h 9 mph /  14.5 km/h 86 % 0 in /  0.0 mm
12:42 49.6 °F /  9.8 °C 45 °F /  7.2 °C 30 in /  1016.1 hPa ENE 6 mph /  9.7 km/h 14 mph /  22.5 km/h 84 % 0 in /  0.0 mm
12:47 49.8 °F /  9.9 °C 45.1 °F /  7.3 °C 30 in /  1016.1 hPa NNE 5 mph /  8.0 km/h 14 mph /  22.5 km/h 84 % 0 in /  0.0 mm
12:57 50.2 °F /  10.1 °C 45.5 °F /  7.5 °C 30 in /  1016.1 hPa NE 3 mph /  4.8 km/h 12 mph /  19.3 km/h 84 % 0 in /  0.0 mm
13:02 50.4 °F /  10.2 °C 45.3 °F /  7.4 °C 30 in /  1016.1 hPa NNE 7 mph /  11.3 km/h 12 mph /  19.3 km/h 83 % 0 in /  0.0 mm
13:12 50.4 °F /  10.2 °C 45.1 °F /  7.3 °C 30 in /  1016.1 hPa NE 6 mph /  9.7 km/h 15 mph /  24.1 km/h 82 % 0 in /  0.0 mm
13:17 49.8 °F /  9.9 °C 43.9 °F /  6.6 °C 30 in /  1016.1 hPa NNE 9 mph /  14.5 km/h 15 mph /  24.1 km/h 80 % 0 in /  0.0 mm
13:22 49.8 °F /  9.9 °C 44.2 °F /  6.8 °C 30 in /  1016.1 hPa NNE 6 mph /  9.7 km/h 15 mph /  24.1 km/h 81 % 0 in /  0.0 mm
13:27 50.2 °F /  10.1 °C 45 °F /  7.2 °C 30 in /  1016.5 hPa NNE 4 mph /  6.4 km/h 15 mph /  24.1 km/h 82 % 0 in /  0.0 mm
13:32 50.5 °F /  10.3 °C 45 °F /  7.2 °C 30 in /  1016.1 hPa NNE 8 mph /  12.9 km/h 15 mph /  24.1 km/h 81 % 0 in /  0.0 mm
13:37 50.5 °F /  10.3 °C 44.2 °F /  6.8 °C 30 in /  1016.5 hPa NNE 7 mph /  11.3 km/h 15 mph /  24.1 km/h 79 % 0 in /  0.0 mm
13:42 50.7 °F /  10.4 °C 45.1 °F /  7.3 °C 30 in /  1016.5 hPa ENE 4 mph /  6.4 km/h 13 mph /  20.9 km/h 81 % 0 in /  0.0 mm
13:47 51.4 °F /  10.8 °C 45.9 °F /  7.7 °C 30 in /  1016.5 hPa NE 2 mph /  3.2 km/h 13 mph /  20.9 km/h 81 % 0 in /  0.0 mm
13:52 51.6 °F /  10.9 °C 46 °F /  7.8 °C 30 in /  1016.5 hPa ENE 5 mph /  8.0 km/h 12 mph /  19.3 km/h 81 % 0 in /  0.0 mm
13:57 51.4 °F /  10.8 °C 45.9 °F /  7.7 °C 30 in /  1016.5 hPa NE 5 mph /  8.0 km/h 7 mph /  11.3 km/h 81 % 0 in /  0.0 mm
14:02 51.8 °F /  11.0 °C 45.9 °F /  7.7 °C 30 in /  1016.5 hPa ENE 3 mph /  4.8 km/h 8 mph /  12.9 km/h 80 % 0 in /  0.0 mm
14:07 52.3 °F /  11.3 °C 46 °F /  7.8 °C 30 in /  1016.5 hPa ENE 4 mph /  6.4 km/h 8 mph /  12.9 km/h 79 % 0 in /  0.0 mm
14:12 52.5 °F /  11.4 °C 45.5 °F /  7.5 °C 30 in /  1016.5 hPa ENE 2 mph /  3.2 km/h 9 mph /  14.5 km/h 77 % 0 in /  0.0 mm
14:17 52.5 °F /  11.4 °C 45.9 °F /  7.7 °C 30 in /  1016.5 hPa ENE 3 mph /  4.8 km/h 9 mph /  14.5 km/h 78 % 0 in /  0.0 mm
14:22 52.3 °F /  11.3 °C 45.3 °F /  7.4 °C 30 in /  1016.5 hPa ENE 4 mph /  6.4 km/h 9 mph /  14.5 km/h 77 % 0 in /  0.0 mm
14:27 52 °F /  11.1 °C 45.3 °F /  7.4 °C 30 in /  1016.5 hPa NE 2 mph /  3.2 km/h 5 mph /  8.0 km/h 78 % 0 in /  0.0 mm
14:32 51.6 °F /  10.9 °C 46 °F /  7.8 °C 30 in /  1016.5 hPa NE 3 mph /  4.8 km/h 5 mph /  8.0 km/h 81 % 0 in /  0.0 mm
14:37 51.6 °F /  10.9 °C 46.2 °F /  7.9 °C 30 in /  1016.8 hPa North 1 mph /  1.6 km/h 5 mph /  8.0 km/h 82 % 0 in /  0.0 mm
14:42 51.6 °F /  10.9 °C 46.6 °F /  8.1 °C 30 in /  1016.8 hPa NNE 2 mph /  3.2 km/h 5 mph /  8.0 km/h 83 % 0.01 in /  0.3 mm
14:47 52.3 °F /  11.3 °C 47.3 °F /  8.5 °C 30 in /  1016.8 hPa North 6 mph /  9.7 km/h 6 mph /  9.7 km/h 83 % 0.01 in /  0.3 mm
14:52 52.3 °F /  11.3 °C 46.8 °F /  8.2 °C 30 in /  1016.8 hPa NNW 3 mph /  4.8 km/h 9 mph /  14.5 km/h 81 % 0.01 in /  0.3 mm
14:57 52.3 °F /  11.3 °C 46 °F /  7.8 °C 30 in /  1016.8 hPa NNE 3 mph /  4.8 km/h 9 mph /  14.5 km/h 79 % 0.01 in /  0.3 mm
15:02 52.9 °F /  11.6 °C 46.2 °F /  7.9 °C 30 in /  1016.8 hPa NNE 1 mph /  1.6 km/h 9 mph /  14.5 km/h 78 % 0.01 in /  0.3 mm
15:12 53.8 °F /  12.1 °C 45.3 °F /  7.4 °C 30 in /  1016.8 hPa North 2 mph /  3.2 km/h 8 mph /  12.9 km/h 73 % 0.01 in /  0.3 mm
15:17 54.3 °F /  12.4 °C 46.2 °F /  7.9 °C 30 in /  1016.8 hPa WNW 5 mph /  8.0 km/h 9 mph /  14.5 km/h 74 % 0.01 in /  0.3 mm
15:22 54.3 °F /  12.4 °C 46.2 °F /  7.9 °C 30 in /  1017.2 hPa North 6 mph /  9.7 km/h 10 mph /  16.1 km/h 74 % 0.01 in /  0.3 mm
15:27 54 °F /  12.2 °C 44.8 °F /  7.1 °C 30 in /  1016.8 hPa NNE 3 mph /  4.8 km/h 10 mph /  16.1 km/h 71 % 0.01 in /  0.3 mm
15:32 54 °F /  12.2 °C 44.8 °F /  7.1 °C 30 in /  1017.2 hPa North 9 mph /  14.5 km/h 11 mph /  17.7 km/h 71 % 0.01 in /  0.3 mm
15:37 53.8 °F /  12.1 °C 45.3 °F /  7.4 °C 30 in /  1017.2 hPa NNE 5 mph /  8.0 km/h 11 mph /  17.7 km/h 73 % 0.01 in /  0.3 mm
15:42 53.1 °F /  11.7 °C 45.3 °F /  7.4 °C 30 in /  1017.2 hPa NE 7 mph /  11.3 km/h 11 mph /  17.7 km/h 75 % 0 in /  0.0 mm
15:47 52 °F /  11.1 °C 46 °F /  7.8 °C 30 in /  1017.2 hPa ENE 7 mph /  11.3 km/h 14 mph /  22.5 km/h 80 % 0 in /  0.0 mm
16:02 52.3 °F /  11.3 °C 45.7 °F /  7.6 °C 30 in /  1017.2 hPa NNW 3 mph /  4.8 km/h 8 mph /  12.9 km/h 78 % 0 in /  0.0 mm
16:07 52.9 °F /  11.6 °C 46.2 °F /  7.9 °C 30 in /  1017.2 hPa NNE 3 mph /  4.8 km/h 5 mph /  8.0 km/h 78 % 0 in /  0.0 mm
16:12 53.1 °F /  11.7 °C 45.7 °F /  7.6 °C 30.1 in /  1017.5 hPa North 5 mph /  8.0 km/h 7 mph /  11.3 km/h 76 % 0 in /  0.0 mm
16:17 53.1 °F /  11.7 °C 45 °F /  7.2 °C 30.1 in /  1017.5 hPa North 6 mph /  9.7 km/h 10 mph /  16.1 km/h 74 % 0 in /  0.0 mm
16:22 53.6 °F /  12.0 °C 46.2 °F /  7.9 °C 30.1 in /  1017.5 hPa WNW 1 mph /  1.6 km/h 10 mph /  16.1 km/h 76 % 0 in /  0.0 mm
16:32 54.1 °F /  12.3 °C 45.7 °F /  7.6 °C 30.1 in /  1017.5 hPa NNE 5 mph /  8.0 km/h 10 mph /  16.1 km/h 73 % 0 in /  0.0 mm
16:37 54.3 °F /  12.4 °C 45.5 °F /  7.5 °C 30.1 in /  1017.5 hPa NNE 6 mph /  9.7 km/h 9 mph /  14.5 km/h 72 % 0 in /  0.0 mm
16:42 54.1 °F /  12.3 °C 45.7 °F /  7.6 °C 30.1 in /  1017.5 hPa NNW 2 mph /  3.2 km/h 7 mph /  11.3 km/h 73 % 0 in /  0.0 mm
16:47 54.1 °F /  12.3 °C 46 °F /  7.8 °C 30.1 in /  1017.8 hPa NNW 4 mph /  6.4 km/h 7 mph /  11.3 km/h 74 % 0 in /  0.0 mm
16:52 53.6 °F /  12.0 °C 45.1 °F /  7.3 °C 30.1 in /  1017.8 hPa NNW 4 mph /  6.4 km/h 8 mph /  12.9 km/h 73 % 0 in /  0.0 mm
16:57 52.9 °F /  11.6 °C 45.1 °F /  7.3 °C 30.1 in /  1017.8 hPa NNE 14 mph /  22.5 km/h 14 mph /  22.5 km/h 75 % 0 in /  0.0 mm
17:02 52 °F /  11.1 °C 43.2 °F /  6.2 °C 30.1 in /  1018.2 hPa NW 7 mph /  11.3 km/h 19 mph /  30.6 km/h 72 % 0 in /  0.0 mm
17:07 51.3 °F /  10.7 °C 43.9 °F /  6.6 °C 30.1 in /  1018.2 hPa ENE 3 mph /  4.8 km/h 19 mph /  30.6 km/h 76 % 0 in /  0.0 mm
17:12 50.5 °F /  10.3 °C 43.9 °F /  6.6 °C 30.1 in /  1018.2 hPa NE 5 mph /  8.0 km/h 19 mph /  30.6 km/h 78 % 0.01 in /  0.3 mm
17:17 50.2 °F /  10.1 °C 44.2 °F /  6.8 °C 30.1 in /  1018.2 hPa NE 3 mph /  4.8 km/h 14 mph /  22.5 km/h 80 % 0.01 in /  0.3 mm
17:22 50.4 °F /  10.2 °C 44.8 °F /  7.1 °C 30.1 in /  1017.8 hPa NNW 2 mph /  3.2 km/h 10 mph /  16.1 km/h 81 % 0.01 in /  0.3 mm
17:27 50.5 °F /  10.3 °C 44.2 °F /  6.8 °C 30.1 in /  1017.8 hPa NW 2 mph /  3.2 km/h 10 mph /  16.1 km/h 79 % 0.01 in /  0.3 mm
17:32 50.7 °F /  10.4 °C 44.1 °F /  6.7 °C 30.1 in /  1017.8 hPa WNW 1 mph /  1.6 km/h 6 mph /  9.7 km/h 78 % 0.01 in /  0.3 mm
17:37 51.4 °F /  10.8 °C 45.1 °F /  7.3 °C 30.1 in /  1017.8 hPa NW 4 mph /  6.4 km/h 5 mph /  8.0 km/h 79 % 0.01 in /  0.3 mm
17:42 51.6 °F /  10.9 °C 44.6 °F /  7.0 °C 30.1 in /  1017.8 hPa NW 2 mph /  3.2 km/h 5 mph /  8.0 km/h 77 % 0.01 in /  0.3 mm
17:47 52 °F /  11.1 °C 45.3 °F /  7.4 °C 30.1 in /  1017.8 hPa WNW 5 mph /  8.0 km/h 5 mph /  8.0 km/h 78 % 0.01 in /  0.3 mm
17:52 52.2 °F /  11.2 °C 45.1 °F /  7.3 °C 30.1 in /  1018.2 hPa WNW 3 mph /  4.8 km/h 5 mph /  8.0 km/h 77 % 0.01 in /  0.3 mm
17:57 52.3 °F /  11.3 °C 44.6 °F /  7.0 °C 30.1 in /  1017.8 hPa WNW 3 mph /  4.8 km/h 5 mph /  8.0 km/h 75 % 0.01 in /  0.3 mm
18:02 52.5 °F /  11.4 °C 45.1 °F /  7.3 °C 30.1 in /  1017.8 hPa NW 3 mph /  4.8 km/h 5 mph /  8.0 km/h 76 % 0.01 in /  0.3 mm
18:07 52.5 °F /  11.4 °C 45.5 °F /  7.5 °C 30.1 in /  1017.8 hPa NW 4 mph /  6.4 km/h 5 mph /  8.0 km/h 77 % 0.01 in /  0.3 mm
18:12 52.3 °F /  11.3 °C 45.7 °F /  7.6 °C 30.1 in /  1017.8 hPa Calm   6 mph /  9.7 km/h 78 % 0 in /  0.0 mm
18:22 52.5 °F /  11.4 °C 46.6 °F /  8.1 °C 30.1 in /  1017.8 hPa WSW 2 mph /  3.2 km/h 6 mph /  9.7 km/h 80 % 0 in /  0.0 mm
18:32 52.5 °F /  11.4 °C 46.2 °F /  7.9 °C 30.1 in /  1018.2 hPa WNW 2 mph /  3.2 km/h 6 mph /  9.7 km/h 79 % 0 in /  0.0 mm
18:42 53.2 °F /  11.8 °C 46.6 °F /  8.1 °C 30.1 in /  1018.2 hPa WNW 2 mph /  3.2 km/h 6 mph /  9.7 km/h 78 % 0 in /  0.0 mm
18:47 53.8 °F /  12.1 °C 46 °F /  7.8 °C 30.1 in /  1018.2 hPa WSW 2 mph /  3.2 km/h 6 mph /  9.7 km/h 75 % 0 in /  0.0 mm
18:57 54.5 °F /  12.5 °C 45.3 °F /  7.4 °C 30.1 in /  1018.2 hPa WNW 1 mph /  1.6 km/h 4 mph /  6.4 km/h 71 % 0 in /  0.0 mm
19:02 54.1 °F /  12.3 °C 44.6 °F /  7.0 °C 30.1 in /  1018.2 hPa NW 2 mph /  3.2 km/h 6 mph /  9.7 km/h 70 % 0 in /  0.0 mm
19:07 53.8 °F /  12.1 °C 44.6 °F /  7.0 °C 30.1 in /  1018.2 hPa West 2 mph /  3.2 km/h 6 mph /  9.7 km/h 71 % 0 in /  0.0 mm
19:12 53.6 °F /  12.0 °C 44.8 °F /  7.1 °C 30.1 in /  1018.2 hPa WSW 3 mph /  4.8 km/h 6 mph /  9.7 km/h 72 % 0 in /  0.0 mm
19:17 53.4 °F /  11.9 °C 44.6 °F /  7.0 °C 30.1 in /  1018.2 hPa West 1 mph /  1.6 km/h 4 mph /  6.4 km/h 72 % 0 in /  0.0 mm
19:22 53.2 °F /  11.8 °C 45.1 °F /  7.3 °C 30.1 in /  1018.2 hPa WNW 4 mph /  6.4 km/h 5 mph /  8.0 km/h 74 % 0 in /  0.0 mm
19:27 53.1 °F /  11.7 °C 45.3 °F /  7.4 °C 30.1 in /  1018.5 hPa West 1 mph /  1.6 km/h 5 mph /  8.0 km/h 75 % 0 in /  0.0 mm
19:32 52.9 °F /  11.6 °C 45.1 °F /  7.3 °C 30.1 in /  1018.5 hPa WNW 4 mph /  6.4 km/h 5 mph /  8.0 km/h 75 % 0 in /  0.0 mm
19:37 52.7 °F /  11.5 °C 45.7 °F /  7.6 °C 30.1 in /  1018.5 hPa WNW 5 mph /  8.0 km/h 5 mph /  8.0 km/h 77 % 0 in /  0.0 mm
19:42 52.9 °F /  11.6 °C 46.2 °F /  7.9 °C 30.1 in /  1018.5 hPa WSW 2 mph /  3.2 km/h 5 mph /  8.0 km/h 78 % 0 in /  0.0 mm
19:47 52.9 °F /  11.6 °C 46.6 °F /  8.1 °C 30.1 in /  1018.2 hPa West 3 mph /  4.8 km/h 5 mph /  8.0 km/h 79 % 0 in /  0.0 mm
19:52 52.9 °F /  11.6 °C 46.2 °F /  7.9 °C 30.1 in /  1018.5 hPa WNW 3 mph /  4.8 km/h 5 mph /  8.0 km/h 78 % 0 in /  0.0 mm
19:57 52.5 °F /  11.4 °C 45.9 °F /  7.7 °C 30.1 in /  1018.5 hPa West 2 mph /  3.2 km/h 6 mph /  9.7 km/h 78 % 0 in /  0.0 mm
20:02 52.3 °F /  11.3 °C 45.7 °F /  7.6 °C 30.1 in /  1018.5 hPa Calm   6 mph /  9.7 km/h 78 % 0 in /  0.0 mm
20:07 52 °F /  11.1 °C 45.3 °F /  7.4 °C 30.1 in /  1018.5 hPa West 6 mph /  9.7 km/h 7 mph /  11.3 km/h 78 % 0 in /  0.0 mm
20:12 51.8 °F /  11.0 °C 45.1 °F /  7.3 °C 30.1 in /  1018.5 hPa WNW 1 mph /  1.6 km/h 9 mph /  14.5 km/h 78 % 0 in /  0.0 mm
20:17 51.4 °F /  10.8 °C 44.8 °F /  7.1 °C 30.1 in /  1018.2 hPa West 2 mph /  3.2 km/h 9 mph /  14.5 km/h 78 % 0 in /  0.0 mm
20:22 51.3 °F /  10.7 °C 44.6 °F /  7.0 °C 30.1 in /  1018.5 hPa NW 2 mph /  3.2 km/h 9 mph /  14.5 km/h 78 % 0 in /  0.0 mm
20:27 50.9 °F /  10.5 °C 44.6 °F /  7.0 °C 30.1 in /  1018.5 hPa WNW 3 mph /  4.8 km/h 5 mph /  8.0 km/h 79 % 0 in /  0.0 mm
20:37 50.7 °F /  10.4 °C 44.1 °F /  6.7 °C 30.1 in /  1018.5 hPa WNW 1 mph /  1.6 km/h 4 mph /  6.4 km/h 78 % 0 in /  0.0 mm
20:42 50.4 °F /  10.2 °C 44.1 °F /  6.7 °C 30.1 in /  1018.5 hPa Calm   3 mph /  4.8 km/h 79 % 0 in /  0.0 mm
20:47 50.2 °F /  10.1 °C 43.9 °F /  6.6 °C 30.1 in /  1018.5 hPa West 1 mph /  1.6 km/h 3 mph /  4.8 km/h 79 % 0 in /  0.0 mm
20:52 50.4 °F /  10.2 °C 44.1 °F /  6.7 °C 30.1 in /  1018.8 hPa Calm   3 mph /  4.8 km/h 79 % 0 in /  0.0 mm
20:57 50.2 °F /  10.1 °C 43.9 °F /  6.6 °C 30.1 in /  1018.8 hPa Calm   4 mph /  6.4 km/h 79 % 0 in /  0.0 mm
21:02 49.8 °F /  9.9 °C 43.5 °F /  6.4 °C 30.1 in /  1018.8 hPa Calm   4 mph /  6.4 km/h 79 % 0 in /  0.0 mm
21:07 49.6 °F /  9.8 °C 43.7 °F /  6.5 °C 30.1 in /  1018.8 hPa Calm   2 mph /  3.2 km/h 80 % 0 in /  0.0 mm
21:12 49.5 °F /  9.7 °C 43.9 °F /  6.6 °C 30.1 in /  1018.8 hPa NW 2 mph /  3.2 km/h 3 mph /  4.8 km/h 81 % 0 in /  0.0 mm
21:17 49.5 °F /  9.7 °C 44.2 °F /  6.8 °C 30.1 in /  1018.8 hPa West 3 mph /  4.8 km/h 4 mph /  6.4 km/h 82 % 0 in /  0.0 mm
21:22 49.3 °F /  9.6 °C 44.1 °F /  6.7 °C 30.1 in /  1018.8 hPa WNW 1 mph /  1.6 km/h 6 mph /  9.7 km/h 82 % 0 in /  0.0 mm
21:27 49.3 °F /  9.6 °C 44.4 °F /  6.9 °C 30.1 in /  1018.8 hPa WNW 1 mph /  1.6 km/h 6 mph /  9.7 km/h 83 % 0 in /  0.0 mm
21:32 49.1 °F /  9.5 °C 44.4 °F /  6.9 °C 30.1 in /  1019.2 hPa WNW 1 mph /  1.6 km/h 4 mph /  6.4 km/h 84 % 0 in /  0.0 mm
21:37 48.9 °F /  9.4 °C 44.2 °F /  6.8 °C 30.1 in /  1019.2 hPa West 1 mph /  1.6 km/h 4 mph /  6.4 km/h 84 % 0 in /  0.0 mm
21:42 49.1 °F /  9.5 °C 44.2 °F /  6.8 °C 30.1 in /  1019.2 hPa West 4 mph /  6.4 km/h 6 mph /  9.7 km/h 83 % 0 in /  0.0 mm
21:47 49.5 °F /  9.7 °C 44.2 °F /  6.8 °C 30.1 in /  1019.2 hPa WNW 2 mph /  3.2 km/h 6 mph /  9.7 km/h 82 % 0 in /  0.0 mm
21:52 49.5 °F /  9.7 °C 43.9 °F /  6.6 °C 30.1 in /  1019.2 hPa West 2 mph /  3.2 km/h 6 mph /  9.7 km/h 81 % 0 in /  0.0 mm
21:57 49.6 °F /  9.8 °C 43.7 °F /  6.5 °C 30.1 in /  1019.2 hPa WNW 6 mph /  9.7 km/h 6 mph /  9.7 km/h 80 % 0 in /  0.0 mm
22:02 49.8 °F /  9.9 °C 43.9 °F /  6.6 °C 30.1 in /  1019.2 hPa West 4 mph /  6.4 km/h 6 mph /  9.7 km/h 80 % 0 in /  0.0 mm
22:07 49.8 °F /  9.9 °C 43.9 °F /  6.6 °C 30.1 in /  1019.2 hPa SW 2 mph /  3.2 km/h 6 mph /  9.7 km/h 80 % 0 in /  0.0 mm
22:12 49.6 °F /  9.8 °C 44.1 °F /  6.7 °C 30.1 in /  1019.5 hPa Calm   6 mph /  9.7 km/h 81 % 0 in /  0.0 mm
22:17 49.6 °F /  9.8 °C 44.1 °F /  6.7 °C 30.1 in /  1019.5 hPa West 2 mph /  3.2 km/h 6 mph /  9.7 km/h 81 % 0 in /  0.0 mm
22:27 49.6 °F /  9.8 °C 44.1 °F /  6.7 °C 30.1 in /  1019.2 hPa West 1 mph /  1.6 km/h 5 mph /  8.0 km/h 81 % 0 in /  0.0 mm
22:32 49.6 °F /  9.8 °C 44.1 °F /  6.7 °C 30.1 in /  1019.2 hPa Calm   5 mph /  8.0 km/h 81 % 0 in /  0.0 mm
22:37 49.6 °F /  9.8 °C 44.1 °F /  6.7 °C 30.1 in /  1019.2 hPa WNW 1 mph /  1.6 km/h 4 mph /  6.4 km/h 81 % 0 in /  0.0 mm
22:42 49.6 °F /  9.8 °C 44.1 °F /  6.7 °C 30.1 in /  1019.2 hPa West 1 mph /  1.6 km/h 3 mph /  4.8 km/h 81 % 0 in /  0.0 mm
22:47 49.6 °F /  9.8 °C 44.1 °F /  6.7 °C 30.1 in /  1019.2 hPa Calm   3 mph /  4.8 km/h 81 % 0 in /  0.0 mm
22:52 49.6 °F /  9.8 °C 44.4 °F /  6.9 °C 30.1 in /  1019.5 hPa Calm   3 mph /  4.8 km/h 82 % 0 in /  0.0 mm
22:57 49.5 °F /  9.7 °C 44.2 °F /  6.8 °C 30.1 in /  1019.5 hPa WNW 1 mph /  1.6 km/h 3 mph /  4.8 km/h 82 % 0 in /  0.0 mm
23:02 49.5 °F /  9.7 °C 44.2 °F /  6.8 °C 30.1 in /  1019.5 hPa Calm   2 mph /  3.2 km/h 82 % 0 in /  0.0 mm
23:07 49.5 °F /  9.7 °C 44.6 °F /  7.0 °C 30.1 in /  1019.5 hPa WNW 3 mph /  4.8 km/h 3 mph /  4.8 km/h 83 % 0 in /  0.0 mm
23:12 49.3 °F /  9.6 °C 44.4 °F /  6.9 °C 30.1 in /  1019.5 hPa West 1 mph /  1.6 km/h 3 mph /  4.8 km/h 83 % 0 in /  0.0 mm
23:17 49.3 °F /  9.6 °C 44.4 °F /  6.9 °C 30.1 in /  1019.5 hPa WNW 3 mph /  4.8 km/h 3 mph /  4.8 km/h 83 % 0 in /  0.0 mm
23:22 49.3 °F /  9.6 °C 44.4 °F /  6.9 °C 30.1 in /  1019.5 hPa WNW 1 mph /  1.6 km/h 5 mph /  8.0 km/h 83 % 0 in /  0.0 mm
23:27 49.3 °F /  9.6 °C 44.4 °F /  6.9 °C 30.1 in /  1019.5 hPa WSW 1 mph /  1.6 km/h 5 mph /  8.0 km/h 83 % 0 in /  0.0 mm
23:32 49.3 °F /  9.6 °C 44.4 °F /  6.9 °C 30.1 in /  1019.5 hPa West 2 mph /  3.2 km/h 5 mph /  8.0 km/h 83 % 0 in /  0.0 mm
23:37 49.3 °F /  9.6 °C 44.6 °F /  7.0 °C 30.1 in /  1019.5 hPa Calm   5 mph /  8.0 km/h 84 % 0 in /  0.0 mm
23:42 49.1 °F /  9.5 °C 44.4 °F /  6.9 °C 30.1 in /  1019.5 hPa West 1 mph /  1.6 km/h 5 mph /  8.0 km/h 84 % 0 in /  0.0 mm
23:47 49.1 °F /  9.5 °C 44.4 °F /  6.9 °C 30.1 in /  1019.5 hPa West 3 mph /  4.8 km/h 3 mph /  4.8 km/h 84 % 0 in /  0.0 mm
23:52 49.3 °F /  9.6 °C 44.6 °F /  7.0 °C 30.1 in /  1019.5 hPa West 2 mph /  3.2 km/h 3 mph /  4.8 km/h 84 % 0 in /  0.0 mm
23:57 49.3 °F /  9.6 °C 44.6 °F /  7.0 °C 30.1 in /  1019.5 hPa West 1 mph /  1.6 km/h 3 mph /  4.8 km/h 84 % 0 in /  0.0 mm
Meteo18
Compliments of Weather Underground - 4 mb

Script developed by  Jim McMurry - jmcmurry@mwt.net Adapted for the template by  Wim van der Kuil - Leuven-Template.eu

You find our weather info also at:

European Weather Network

Weather Underground

Equipment we use:

Weather-station
Davis Vue

Weather-program
Meteohub

Weather-server
Raspberry PI 2 B+

Provider
1 and 1

Davis Vue

Meteohub

Raspberry PI 2 B+

1 and 1